createdAt,value
2022-11-15T00:00:40.504Z,0
2022-11-15T00:01:46.759Z,0
2022-11-15T00:02:53.035Z,0
2022-11-15T00:03:59.309Z,0
2022-11-15T00:05:05.600Z,0
2022-11-15T00:06:11.871Z,0
2022-11-15T00:07:18.122Z,0
2022-11-15T00:08:24.380Z,0
2022-11-15T00:09:30.644Z,0
2022-11-15T00:10:36.933Z,0
2022-11-15T00:11:43.186Z,0
2022-11-15T00:12:49.456Z,0
2022-11-15T00:13:55.732Z,0
2022-11-15T00:15:02.065Z,0
2022-11-15T00:16:08.294Z,0
2022-11-15T00:17:14.567Z,0
2022-11-15T00:18:20.813Z,0
2022-11-15T00:19:27.151Z,0
2022-11-15T00:20:33.331Z,0
2022-11-15T00:21:39.595Z,0
2022-11-15T00:22:45.859Z,0
2022-11-15T00:23:52.237Z,0
2022-11-15T00:24:58.552Z,0
2022-11-15T00:26:04.919Z,0
2022-11-15T00:27:11.226Z,0
2022-11-15T00:28:17.569Z,0
2022-11-15T00:29:23.908Z,0
2022-11-15T00:30:30.252Z,0
2022-11-15T00:31:36.596Z,0
2022-11-15T00:32:42.933Z,0
2022-11-15T00:33:49.340Z,0
2022-11-15T00:34:55.626Z,0
2022-11-15T00:36:02.008Z,0
2022-11-15T00:37:08.326Z,0
2022-11-15T00:38:14.791Z,0
2022-11-15T00:39:20.226Z,0
2022-11-15T00:40:26.550Z,0
2022-11-15T00:41:32.759Z,0
2022-11-15T00:42:39.023Z,0
2022-11-15T00:43:45.373Z,0
2022-11-15T00:44:51.561Z,0
2022-11-15T00:45:57.829Z,0
2022-11-15T00:47:04.136Z,0
2022-11-15T00:48:10.376Z,0
2022-11-15T00:49:16.640Z,0
2022-11-15T00:50:22.907Z,0
2022-11-15T00:51:29.171Z,0
2022-11-15T00:52:35.442Z,0
2022-11-15T00:53:41.692Z,0
2022-11-15T00:54:47.989Z,0
2022-11-15T00:55:54.251Z,0
2022-11-15T00:57:00.511Z,0
2022-11-15T00:58:06.722Z,0
2022-11-15T00:59:12.999Z,0
2022-11-15T01:00:19.265Z,0
2022-11-15T01:01:25.534Z,0
2022-11-15T01:02:31.914Z,0
2022-11-15T01:03:38.069Z,0
2022-11-15T01:04:44.325Z,0
2022-11-15T01:05:50.571Z,0
2022-11-15T01:06:56.926Z,0
2022-11-15T01:08:03.251Z,0
2022-11-15T01:09:09.602Z,0
2022-11-15T01:10:15.947Z,0
2022-11-15T01:11:22.291Z,0
2022-11-15T01:12:28.631Z,0
2022-11-15T01:13:34.968Z,0
2022-11-15T01:14:41.338Z,0
2022-11-15T01:15:47.684Z,0
2022-11-15T01:16:54.015Z,0
2022-11-15T01:18:00.340Z,0
2022-11-15T01:19:06.679Z,0
2022-11-15T01:20:13.019Z,0
2022-11-15T01:21:19.556Z,0
2022-11-15T01:22:24.882Z,0
2022-11-15T01:23:31.216Z,0
2022-11-15T01:24:37.481Z,0
2022-11-15T01:25:43.676Z,0
2022-11-15T01:26:49.966Z,0
2022-11-15T01:27:56.202Z,0
2022-11-15T01:29:02.446Z,0
2022-11-15T01:30:08.695Z,0
2022-11-15T01:31:15.031Z,0
2022-11-15T01:32:21.240Z,0
2022-11-15T01:33:27.482Z,0
2022-11-15T01:34:33.753Z,0
2022-11-15T01:35:39.999Z,0
2022-11-15T01:36:46.317Z,0
2022-11-15T01:37:52.521Z,0
2022-11-15T01:38:58.771Z,0
2022-11-15T01:40:05.093Z,0
2022-11-15T01:41:11.299Z,0
2022-11-15T01:42:17.612Z,0
2022-11-15T01:43:23.819Z,0
2022-11-15T01:44:30.193Z,0
2022-11-15T01:45:36.365Z,0
2022-11-15T01:46:42.591Z,0
2022-11-15T01:47:48.853Z,0
2022-11-15T01:48:55.116Z,0
2022-11-15T01:50:01.494Z,0
2022-11-15T01:51:07.785Z,0
2022-11-15T01:52:14.124Z,0
2022-11-15T01:53:20.450Z,0
2022-11-15T01:54:26.798Z,0
2022-11-15T01:55:33.147Z,0
2022-11-15T01:56:39.464Z,0
2022-11-15T01:57:45.797Z,0
2022-11-15T01:58:52.153Z,0
2022-11-15T01:59:58.495Z,0
2022-11-15T02:01:04.795Z,0
2022-11-15T02:02:11.134Z,0
2022-11-15T02:03:17.447Z,0
2022-11-15T02:04:23.927Z,0
2022-11-15T02:05:29.313Z,0
2022-11-15T02:06:35.568Z,0
2022-11-15T02:07:41.843Z,0
2022-11-15T02:08:48.087Z,0
2022-11-15T02:09:54.348Z,0
2022-11-15T02:11:00.613Z,0
2022-11-15T02:12:06.870Z,0
2022-11-15T02:13:13.152Z,0
2022-11-15T02:14:19.385Z,0
2022-11-15T02:15:25.648Z,0
2022-11-15T02:16:31.911Z,0
2022-11-15T02:17:38.159Z,0
2022-11-15T02:18:44.413Z,0
2022-11-15T02:19:50.685Z,0
2022-11-15T02:20:56.933Z,0
2022-11-15T02:22:03.189Z,0
2022-11-15T02:23:09.446Z,0
2022-11-15T02:24:15.709Z,0
2022-11-15T02:25:22.087Z,0
2022-11-15T02:26:28.224Z,0
2022-11-15T02:27:34.482Z,0
2022-11-15T02:28:40.813Z,0
2022-11-15T02:29:47.013Z,0
2022-11-15T02:30:53.351Z,0
2022-11-15T02:31:59.559Z,0
2022-11-15T02:33:05.903Z,0
2022-11-15T02:34:12.264Z,0
2022-11-15T02:35:18.576Z,0
2022-11-15T02:36:24.893Z,0
2022-11-15T02:37:31.306Z,0
2022-11-15T02:38:37.574Z,0
2022-11-15T02:39:43.910Z,0
2022-11-15T02:40:50.247Z,0
2022-11-15T02:41:56.578Z,0
2022-11-15T02:43:02.907Z,0
2022-11-15T02:44:09.337Z,0
2022-11-15T02:45:15.573Z,0
2022-11-15T02:46:21.962Z,0
2022-11-15T02:47:28.443Z,0
2022-11-15T02:48:33.872Z,0
2022-11-15T02:49:40.000Z,0
2022-11-15T02:50:46.370Z,0
2022-11-15T02:51:52.544Z,0
2022-11-15T02:52:58.782Z,0
2022-11-15T02:54:05.120Z,0
2022-11-15T02:55:11.278Z,0
2022-11-15T02:56:17.620Z,0
2022-11-15T02:57:23.874Z,0
2022-11-15T02:58:30.185Z,0
2022-11-15T02:59:36.295Z,0
2022-11-15T03:00:42.551Z,0
2022-11-15T03:01:48.811Z,0
2022-11-15T03:02:55.067Z,0
2022-11-15T03:04:01.454Z,0
2022-11-15T03:05:07.590Z,0
2022-11-15T03:06:13.851Z,0
2022-11-15T03:07:20.112Z,0
2022-11-15T03:08:26.351Z,0
2022-11-15T03:09:32.663Z,0
2022-11-15T03:10:38.874Z,0
2022-11-15T03:11:45.130Z,0
2022-11-15T03:12:51.403Z,0
2022-11-15T03:13:57.664Z,0
2022-11-15T03:15:04.054Z,0
2022-11-15T03:16:10.248Z,0
2022-11-15T03:17:16.569Z,0
2022-11-15T03:18:22.913Z,0
2022-11-15T03:19:29.249Z,0
2022-11-15T03:20:35.605Z,0
2022-11-15T03:21:42.047Z,0
2022-11-15T03:22:48.249Z,0
2022-11-15T03:23:54.670Z,0
2022-11-15T03:25:00.932Z,0
2022-11-15T03:26:07.262Z,0
2022-11-15T03:27:13.607Z,0
2022-11-15T03:28:19.983Z,0
2022-11-15T03:29:26.263Z,0
2022-11-15T03:30:32.744Z,0
2022-11-15T03:31:38.150Z,0
2022-11-15T03:32:44.454Z,0
2022-11-15T03:33:50.675Z,0
2022-11-15T03:34:56.990Z,0
2022-11-15T03:36:03.210Z,0
2022-11-15T03:37:09.470Z,0
2022-11-15T03:38:15.734Z,0
2022-11-15T03:39:22.036Z,0
2022-11-15T03:40:28.305Z,0
2022-11-15T03:41:34.509Z,0
2022-11-15T03:42:40.761Z,0
2022-11-15T03:43:47.030Z,0
2022-11-15T03:44:53.295Z,0
2022-11-15T03:45:59.641Z,0
2022-11-15T03:47:05.839Z,0
2022-11-15T03:48:12.140Z,0
2022-11-15T03:49:18.379Z,0
2022-11-15T03:50:24.649Z,0
2022-11-15T03:51:30.917Z,0
2022-11-15T03:52:37.188Z,0
2022-11-15T03:53:43.453Z,0
2022-11-15T03:54:49.717Z,0
2022-11-15T03:55:56.045Z,0
2022-11-15T03:57:02.262Z,0
2022-11-15T03:58:08.521Z,0
2022-11-15T03:59:14.923Z,0
2022-11-15T04:00:21.209Z,0
2022-11-15T04:01:27.553Z,0
2022-11-15T04:02:33.893Z,0
2022-11-15T04:03:40.256Z,0
2022-11-15T04:04:46.594Z,0
2022-11-15T04:05:52.932Z,0
2022-11-15T04:06:59.271Z,0
2022-11-15T04:08:05.618Z,0
2022-11-15T04:09:11.998Z,0
2022-11-15T04:10:18.356Z,0
2022-11-15T04:11:24.640Z,0
2022-11-15T04:12:30.990Z,0
2022-11-15T04:13:37.444Z,0
2022-11-15T04:14:42.843Z,0
2022-11-15T04:15:49.119Z,0
2022-11-15T04:16:55.376Z,0
2022-11-15T04:18:01.649Z,0
2022-11-15T04:19:07.911Z,0
2022-11-15T04:20:14.215Z,0
2022-11-15T04:21:20.463Z,0
2022-11-15T04:22:26.768Z,0
2022-11-15T04:23:32.998Z,0
2022-11-15T04:24:39.269Z,0
2022-11-15T04:25:45.541Z,0
2022-11-15T04:26:51.808Z,0
2022-11-15T04:27:58.225Z,0
2022-11-15T04:29:04.401Z,0
2022-11-15T04:30:10.622Z,0
2022-11-15T04:31:16.897Z,0
2022-11-15T04:32:23.146Z,0
2022-11-15T04:33:29.415Z,0
2022-11-15T04:34:35.735Z,0
2022-11-15T04:35:41.970Z,0
2022-11-15T04:36:48.289Z,0
2022-11-15T04:37:54.504Z,0
2022-11-15T04:39:00.782Z,0
2022-11-15T04:40:07.055Z,0
2022-11-15T04:41:13.326Z,0
2022-11-15T04:42:19.690Z,0
2022-11-15T04:43:26.043Z,0
2022-11-15T04:44:32.379Z,0
2022-11-15T04:45:38.741Z,0
2022-11-15T04:46:45.136Z,0
2022-11-15T04:47:51.444Z,0
2022-11-15T04:48:57.784Z,0
2022-11-15T04:50:04.187Z,0
2022-11-15T04:51:10.523Z,0
2022-11-15T04:52:16.876Z,0
2022-11-15T04:53:23.162Z,0
2022-11-15T04:54:29.526Z,0
2022-11-15T04:55:35.864Z,0
2022-11-15T04:56:42.340Z,0
2022-11-15T04:57:47.744Z,0
2022-11-15T04:58:54.019Z,0
2022-11-15T05:00:00.304Z,0
2022-11-15T05:01:06.546Z,0
2022-11-15T05:02:12.871Z,0
2022-11-15T05:03:19.100Z,0
2022-11-15T05:04:25.357Z,0
2022-11-15T05:05:31.630Z,0
2022-11-15T05:06:37.898Z,0
2022-11-15T05:07:44.155Z,0
2022-11-15T05:08:50.429Z,0
2022-11-15T05:09:56.709Z,0
2022-11-15T05:11:03.004Z,0
2022-11-15T05:12:09.232Z,0
2022-11-15T05:13:15.500Z,0
2022-11-15T05:14:21.765Z,0
2022-11-15T05:15:28.046Z,0
2022-11-15T05:16:34.309Z,0
2022-11-15T05:17:40.631Z,0
2022-11-15T05:18:46.870Z,0
2022-11-15T05:19:53.124Z,0
2022-11-15T05:20:59.384Z,0
2022-11-15T05:22:05.654Z,0
2022-11-15T05:23:11.930Z,0
2022-11-15T05:24:18.198Z,0
2022-11-15T05:25:24.557Z,0
2022-11-15T05:26:30.921Z,0
2022-11-15T05:27:37.264Z,0
2022-11-15T05:28:43.635Z,0
2022-11-15T05:29:49.966Z,0
2022-11-15T05:30:56.299Z,0
2022-11-15T05:32:02.652Z,0
2022-11-15T05:33:09.007Z,0
2022-11-15T05:34:15.364Z,0
2022-11-15T05:35:21.710Z,0
2022-11-15T05:36:28.059Z,0
2022-11-15T05:37:34.417Z,0
2022-11-15T05:38:40.764Z,0
2022-11-15T05:39:47.232Z,0
2022-11-15T05:40:52.641Z,0
2022-11-15T05:41:58.919Z,0
2022-11-15T05:43:05.186Z,0
2022-11-15T05:44:11.452Z,0
2022-11-15T05:45:17.797Z,0
2022-11-15T05:46:24.123Z,0
2022-11-15T05:47:30.419Z,0
2022-11-15T05:48:36.714Z,0
2022-11-15T05:49:42.865Z,0
2022-11-15T05:50:49.135Z,0
2022-11-15T05:51:55.388Z,0
2022-11-15T05:53:01.642Z,0
2022-11-15T05:54:08.034Z,0
2022-11-15T05:55:14.190Z,0
2022-11-15T05:56:20.507Z,0
2022-11-15T05:57:26.742Z,0
2022-11-15T05:58:33.016Z,0
2022-11-15T05:59:39.282Z,0
2022-11-15T06:00:45.567Z,0
2022-11-15T06:01:51.854Z,0
2022-11-15T06:02:58.185Z,0
2022-11-15T06:04:04.452Z,0
2022-11-15T06:05:10.640Z,0
2022-11-15T06:06:16.944Z,0
2022-11-15T06:07:23.192Z,0
2022-11-15T06:08:29.551Z,0
2022-11-15T06:09:35.969Z,0
2022-11-15T06:10:42.267Z,0
2022-11-15T06:11:48.628Z,0
2022-11-15T06:12:54.947Z,0
2022-11-15T06:14:01.436Z,0
2022-11-15T06:15:07.692Z,0
2022-11-15T06:16:14.017Z,0
2022-11-15T06:17:20.375Z,0
2022-11-15T06:18:26.714Z,5
2022-11-15T06:19:33.124Z,5
2022-11-15T06:20:39.440Z,5
2022-11-15T06:21:45.823Z,5
2022-11-15T06:22:52.269Z,5
2022-11-15T06:23:57.819Z,5
2022-11-15T06:25:04.095Z,5
2022-11-15T06:26:10.459Z,11
2022-11-15T06:27:16.830Z,11
2022-11-15T06:28:23.144Z,11
2022-11-15T06:29:29.485Z,11
2022-11-15T06:30:35.827Z,11
2022-11-15T06:31:42.249Z,16
2022-11-15T06:32:48.530Z,16
2022-11-15T06:33:55.021Z,16
2022-11-15T06:35:01.288Z,16
2022-11-15T06:36:07.631Z,22
2022-11-15T06:37:13.971Z,22
2022-11-15T06:38:20.285Z,22
2022-11-15T06:39:26.779Z,28
2022-11-15T06:40:33.121Z,28
2022-11-15T06:41:39.482Z,28
2022-11-15T06:42:45.696Z,33
2022-11-15T06:43:52.086Z,33
2022-11-15T06:44:58.385Z,39
2022-11-15T06:46:04.743Z,39
2022-11-15T06:47:11.162Z,45
2022-11-15T06:48:17.439Z,45
2022-11-15T06:49:23.798Z,45
2022-11-15T06:50:30.221Z,50
2022-11-15T06:51:36.688Z,50
2022-11-15T06:52:42.189Z,50
2022-11-15T06:53:48.504Z,56
2022-11-15T06:54:54.807Z,56
2022-11-15T06:56:01.230Z,61
2022-11-15T06:57:07.524Z,61
2022-11-15T06:58:13.847Z,67
2022-11-15T06:59:20.191Z,67
2022-11-15T07:00:26.536Z,73
2022-11-15T07:01:32.893Z,73
2022-11-15T07:02:39.261Z,112
2022-11-15T07:03:45.648Z,236
2022-11-15T07:04:52.004Z,337
2022-11-15T07:05:58.300Z,410
2022-11-15T07:07:04.642Z,438
2022-11-15T07:08:10.980Z,405
2022-11-15T07:09:17.368Z,405
2022-11-15T07:10:23.653Z,399
2022-11-15T07:11:30.093Z,421
2022-11-15T07:12:36.309Z,399
2022-11-15T07:13:42.809Z,450
2022-11-15T07:14:49.016Z,500
2022-11-15T07:15:55.263Z,478
2022-11-15T07:17:01.642Z,568
2022-11-15T07:18:07.927Z,618
2022-11-15T07:19:14.213Z,556
2022-11-15T07:20:20.675Z,528
2022-11-15T07:21:26.096Z,551
2022-11-15T07:22:31.497Z,573
2022-11-15T07:23:36.694Z,601
2022-11-15T07:24:42.954Z,691
2022-11-15T07:25:49.108Z,849
2022-11-15T07:26:55.312Z,770
2022-11-15T07:28:01.513Z,472
2022-11-15T07:29:07.709Z,331
2022-11-15T07:30:13.892Z,230
2022-11-15T07:31:20.173Z,151
2022-11-15T07:32:26.364Z,151
2022-11-15T07:33:32.535Z,213
2022-11-15T07:34:38.700Z,180
2022-11-15T07:35:44.914Z,157
2022-11-15T07:36:51.120Z,140
2022-11-15T07:37:57.333Z,135
2022-11-15T07:39:03.638Z,135
2022-11-15T07:40:09.803Z,135
2022-11-15T07:41:16.005Z,135
2022-11-15T07:42:22.176Z,140
2022-11-15T07:43:28.428Z,140
2022-11-15T07:44:34.621Z,140
2022-11-15T07:45:40.834Z,140
2022-11-15T07:46:47.064Z,146
2022-11-15T07:47:53.358Z,146
2022-11-15T07:48:59.617Z,146
2022-11-15T07:50:05.773Z,146
2022-11-15T07:51:12.054Z,151
2022-11-15T07:52:18.365Z,163
2022-11-15T07:53:24.764Z,163
2022-11-15T07:54:31.091Z,151
2022-11-15T07:55:37.353Z,151
2022-11-15T07:56:43.615Z,151
2022-11-15T07:57:50.065Z,151
2022-11-15T07:58:55.247Z,157
2022-11-15T08:00:01.522Z,213
2022-11-15T08:01:07.788Z,202
2022-11-15T08:02:13.898Z,157
2022-11-15T08:03:20.155Z,157
2022-11-15T08:04:26.438Z,151
2022-11-15T08:05:32.607Z,157
2022-11-15T08:06:38.829Z,157
2022-11-15T08:07:45.075Z,163
2022-11-15T08:08:51.293Z,157
2022-11-15T08:09:57.539Z,163
2022-11-15T08:11:03.752Z,163
2022-11-15T08:12:09.988Z,163
2022-11-15T08:13:16.369Z,163
2022-11-15T08:14:22.435Z,163
2022-11-15T08:15:28.676Z,163
2022-11-15T08:16:34.997Z,168
2022-11-15T08:17:41.228Z,174
2022-11-15T08:18:47.383Z,168
2022-11-15T08:19:53.697Z,168
2022-11-15T08:20:59.833Z,168
2022-11-15T08:22:06.079Z,168
2022-11-15T08:23:12.300Z,168
2022-11-15T08:24:18.574Z,168
2022-11-15T08:25:24.786Z,168
2022-11-15T08:26:31.105Z,185
2022-11-15T08:27:36.369Z,180
2022-11-15T08:28:42.685Z,196
2022-11-15T08:29:48.808Z,208
2022-11-15T08:30:55.064Z,253
2022-11-15T08:32:01.262Z,270
2022-11-15T08:33:07.494Z,196
2022-11-15T08:34:13.812Z,174
2022-11-15T08:35:20.039Z,174
2022-11-15T08:36:26.315Z,180
2022-11-15T08:37:32.383Z,180
2022-11-15T08:38:38.622Z,174
2022-11-15T08:39:44.833Z,174
2022-11-15T08:40:51.132Z,174
2022-11-15T08:41:57.376Z,174
2022-11-15T08:43:03.500Z,174
2022-11-15T08:44:09.766Z,174
2022-11-15T08:45:16.010Z,180
2022-11-15T08:46:22.288Z,180
2022-11-15T08:47:28.404Z,180
2022-11-15T08:48:34.644Z,180
2022-11-15T08:49:40.815Z,180
2022-11-15T08:50:47.110Z,180
2022-11-15T08:51:53.283Z,180
2022-11-15T08:52:59.565Z,180
2022-11-15T08:54:05.804Z,180
2022-11-15T08:55:11.921Z,180
2022-11-15T08:56:17.263Z,180
2022-11-15T08:57:23.463Z,180
2022-11-15T08:58:29.647Z,191
2022-11-15T08:59:35.883Z,264
2022-11-15T09:00:42.060Z,292
2022-11-15T09:01:48.240Z,275
2022-11-15T09:02:54.443Z,253
2022-11-15T09:04:00.642Z,230
2022-11-15T09:05:05.852Z,219
2022-11-15T09:06:11.065Z,213
2022-11-15T09:07:16.476Z,213
2022-11-15T09:08:21.471Z,213
2022-11-15T09:09:27.662Z,213
2022-11-15T09:10:33.844Z,208
2022-11-15T09:11:40.210Z,208
2022-11-15T09:12:46.331Z,202
2022-11-15T09:13:52.472Z,202
2022-11-15T09:14:58.543Z,202
2022-11-15T09:16:05.009Z,196
2022-11-15T09:17:11.129Z,196
2022-11-15T09:18:17.293Z,196
2022-11-15T09:19:23.373Z,196
2022-11-15T09:20:29.449Z,191
2022-11-15T09:21:35.571Z,191
2022-11-15T09:22:40.943Z,191
2022-11-15T09:23:47.126Z,191
2022-11-15T09:24:53.172Z,191
2022-11-15T09:25:59.452Z,191
2022-11-15T09:27:05.537Z,191
2022-11-15T09:28:11.765Z,191
2022-11-15T09:29:17.800Z,191
2022-11-15T09:30:24.079Z,191
2022-11-15T09:31:30.279Z,191
2022-11-15T09:32:36.470Z,185
2022-11-15T09:33:42.586Z,185
2022-11-15T09:34:48.848Z,185
2022-11-15T09:35:55.016Z,185
2022-11-15T09:37:00.025Z,185
2022-11-15T09:38:06.451Z,180
2022-11-15T09:39:12.510Z,180
2022-11-15T09:40:18.779Z,180
2022-11-15T09:41:24.801Z,180
2022-11-15T09:42:31.122Z,180
2022-11-15T09:43:37.267Z,180
2022-11-15T09:44:43.359Z,174
2022-11-15T09:45:49.623Z,174
2022-11-15T09:46:55.746Z,174
2022-11-15T09:48:01.786Z,174
2022-11-15T09:49:07.966Z,174
2022-11-15T09:50:14.280Z,180
2022-11-15T09:51:19.483Z,180
2022-11-15T09:52:25.666Z,180
2022-11-15T09:53:31.807Z,180
2022-11-15T09:54:37.827Z,180
2022-11-15T09:55:44.217Z,180
2022-11-15T09:56:50.348Z,180
2022-11-15T09:57:56.534Z,185
2022-11-15T09:59:02.733Z,185
2022-11-15T10:00:08.887Z,180
2022-11-15T10:01:14.910Z,185
2022-11-15T10:02:21.240Z,185
2022-11-15T10:03:27.455Z,185
2022-11-15T10:04:33.645Z,185
2022-11-15T10:05:38.754Z,185
2022-11-15T10:06:44.909Z,185
2022-11-15T10:07:50.927Z,185
2022-11-15T10:08:57.290Z,185
2022-11-15T10:10:03.451Z,185
2022-11-15T10:11:09.442Z,185
2022-11-15T10:12:15.871Z,185
2022-11-15T10:13:21.957Z,185
2022-11-15T10:14:28.143Z,185
2022-11-15T10:15:34.329Z,185
2022-11-15T10:16:40.467Z,185
2022-11-15T10:17:46.622Z,185
2022-11-15T10:18:52.851Z,185
2022-11-15T10:19:57.814Z,185
2022-11-15T10:21:04.039Z,185
2022-11-15T10:22:10.253Z,185
2022-11-15T10:23:16.302Z,185
2022-11-15T10:24:22.459Z,185
2022-11-15T10:25:28.747Z,185
2022-11-15T10:26:34.971Z,180
2022-11-15T10:27:41.109Z,180
2022-11-15T10:28:47.171Z,180
2022-11-15T10:29:53.431Z,180
2022-11-15T10:30:59.690Z,180
2022-11-15T10:32:05.729Z,180
2022-11-15T10:33:11.886Z,180
2022-11-15T10:34:17.078Z,180
2022-11-15T10:35:23.163Z,180
2022-11-15T10:36:29.313Z,180
2022-11-15T10:37:35.382Z,180
2022-11-15T10:38:41.514Z,180
2022-11-15T10:39:47.683Z,180
2022-11-15T10:40:53.903Z,180
2022-11-15T10:42:00.076Z,180
2022-11-15T10:43:06.170Z,180
2022-11-15T10:44:12.319Z,180
2022-11-15T10:45:18.488Z,180
2022-11-15T10:46:24.560Z,180
2022-11-15T10:47:30.805Z,180
2022-11-15T10:48:36.019Z,180
2022-11-15T10:49:42.141Z,180
2022-11-15T10:50:48.286Z,180
2022-11-15T10:51:54.364Z,180
2022-11-15T10:53:00.497Z,180
2022-11-15T10:54:06.743Z,180
2022-11-15T10:55:12.822Z,180
2022-11-15T10:56:18.957Z,180
2022-11-15T10:57:25.122Z,180
2022-11-15T10:58:31.363Z,180
2022-11-15T10:59:37.515Z,180
2022-11-15T11:00:43.553Z,180
2022-11-15T11:01:49.816Z,180
2022-11-15T11:02:55.919Z,180
2022-11-15T11:04:02.052Z,180
2022-11-15T11:05:08.223Z,174
2022-11-15T11:06:13.412Z,174
2022-11-15T11:07:19.595Z,174
2022-11-15T11:08:25.726Z,174
2022-11-15T11:09:31.872Z,174
2022-11-15T11:10:37.883Z,174
2022-11-15T11:11:44.087Z,174
2022-11-15T11:12:50.184Z,174
2022-11-15T11:13:56.415Z,174
2022-11-15T11:15:02.438Z,174
2022-11-15T11:16:08.663Z,174
2022-11-15T11:17:14.739Z,174
2022-11-15T11:18:20.980Z,174
2022-11-15T11:19:27.043Z,180
2022-11-15T11:20:32.257Z,174
2022-11-15T11:21:38.412Z,174
2022-11-15T11:22:44.635Z,174
2022-11-15T11:23:50.759Z,174
2022-11-15T11:24:56.740Z,174
2022-11-15T11:26:03.062Z,174
2022-11-15T11:27:09.049Z,174
2022-11-15T11:28:15.265Z,174
2022-11-15T11:29:21.444Z,168
2022-11-15T11:30:27.553Z,174
2022-11-15T11:31:33.788Z,163
2022-11-15T11:32:39.734Z,163
2022-11-15T11:33:45.994Z,163
2022-11-15T11:34:51.184Z,163
2022-11-15T11:35:57.328Z,168
2022-11-15T11:37:03.373Z,168
2022-11-15T11:38:09.455Z,168
2022-11-15T11:39:15.708Z,174
2022-11-15T11:40:21.750Z,168
2022-11-15T11:41:28.051Z,168
2022-11-15T11:42:34.134Z,168
2022-11-15T11:43:40.263Z,163
2022-11-15T11:44:46.302Z,163
2022-11-15T11:45:52.532Z,163
2022-11-15T11:46:58.649Z,163
2022-11-15T11:48:04.788Z,157
2022-11-15T11:49:09.989Z,151
2022-11-15T11:50:16.093Z,151
2022-11-15T11:51:22.259Z,151
2022-11-15T11:52:28.348Z,151
2022-11-15T11:53:34.413Z,151
2022-11-15T11:54:40.543Z,151
2022-11-15T11:55:46.700Z,151
2022-11-15T11:56:52.822Z,151
2022-11-15T11:57:59.043Z,151
2022-11-15T11:59:05.133Z,146
2022-11-15T12:00:11.309Z,140
2022-11-15T12:01:17.520Z,135
2022-11-15T12:02:23.594Z,135
2022-11-15T12:03:28.683Z,135
2022-11-15T12:04:34.946Z,135
2022-11-15T12:05:40.971Z,135
2022-11-15T12:06:47.094Z,129
2022-11-15T12:07:53.339Z,135
2022-11-15T12:08:59.399Z,140
2022-11-15T12:10:05.514Z,146
2022-11-15T12:11:11.721Z,146
2022-11-15T12:12:17.963Z,146
2022-11-15T12:13:23.990Z,151
2022-11-15T12:14:30.072Z,151
2022-11-15T12:15:36.345Z,146
2022-11-15T12:16:42.442Z,146
2022-11-15T12:17:47.677Z,146
2022-11-15T12:18:53.767Z,146
2022-11-15T12:19:59.859Z,146
2022-11-15T12:21:06.058Z,146
2022-11-15T12:22:12.244Z,146
2022-11-15T12:23:18.200Z,146
2022-11-15T12:24:24.375Z,140
2022-11-15T12:25:30.528Z,151
2022-11-15T12:26:36.721Z,151
2022-11-15T12:27:42.849Z,151
2022-11-15T12:28:48.880Z,151
2022-11-15T12:29:55.029Z,151
2022-11-15T12:31:01.220Z,151
2022-11-15T12:32:06.313Z,151
2022-11-15T12:33:12.447Z,151
2022-11-15T12:34:18.593Z,151
2022-11-15T12:35:24.721Z,151
2022-11-15T12:36:30.904Z,146
2022-11-15T12:37:36.216Z,151
2022-11-15T12:38:42.267Z,151
2022-11-15T12:39:48.318Z,146
2022-11-15T12:40:54.422Z,146
2022-11-15T12:42:00.567Z,151
2022-11-15T12:43:06.688Z,146
2022-11-15T12:44:12.829Z,146
2022-11-15T12:45:18.957Z,146
2022-11-15T12:46:25.093Z,140
2022-11-15T12:47:31.211Z,140
2022-11-15T12:48:37.392Z,146
2022-11-15T12:49:43.624Z,146
2022-11-15T12:50:49.617Z,140
2022-11-15T12:51:54.791Z,140
2022-11-15T12:53:01.002Z,140
2022-11-15T12:54:07.022Z,140
2022-11-15T12:55:13.161Z,135
2022-11-15T12:56:19.299Z,135
2022-11-15T12:57:25.440Z,135
2022-11-15T12:58:31.564Z,129
2022-11-15T12:59:37.701Z,129
2022-11-15T13:00:43.814Z,129
2022-11-15T13:01:49.955Z,123
2022-11-15T13:02:56.085Z,129
2022-11-15T13:04:02.212Z,129
2022-11-15T13:05:08.339Z,129
2022-11-15T13:06:14.471Z,123
2022-11-15T13:07:19.622Z,123
2022-11-15T13:08:25.743Z,123
2022-11-15T13:09:31.995Z,123
2022-11-15T13:10:38.045Z,123
2022-11-15T13:11:44.312Z,123
2022-11-15T13:12:50.289Z,118
2022-11-15T13:13:56.426Z,118
2022-11-15T13:15:02.557Z,118
2022-11-15T13:16:08.706Z,112
2022-11-15T13:17:14.820Z,118
2022-11-15T13:18:20.950Z,112
2022-11-15T13:19:27.101Z,112
2022-11-15T13:20:33.239Z,112
2022-11-15T13:21:39.356Z,112
2022-11-15T13:22:44.508Z,112
2022-11-15T13:23:50.653Z,106
2022-11-15T13:24:56.780Z,106
2022-11-15T13:26:03.052Z,106
2022-11-15T13:27:09.239Z,106
2022-11-15T13:28:15.363Z,106
2022-11-15T13:29:21.333Z,101
2022-11-15T13:30:27.481Z,101
2022-11-15T13:31:33.657Z,101
2022-11-15T13:32:39.749Z,101
2022-11-15T13:33:45.892Z,101
2022-11-15T13:34:52.066Z,95
2022-11-15T13:35:58.183Z,95
2022-11-15T13:37:03.326Z,95
2022-11-15T13:38:09.468Z,95
2022-11-15T13:39:15.615Z,95
2022-11-15T13:40:21.801Z,95
2022-11-15T13:41:27.896Z,95
2022-11-15T13:42:34.061Z,95
2022-11-15T13:43:40.194Z,95
2022-11-15T13:44:46.331Z,90
2022-11-15T13:45:52.478Z,90
2022-11-15T13:46:58.628Z,84
2022-11-15T13:48:04.770Z,84
2022-11-15T13:49:10.908Z,84
2022-11-15T13:50:17.049Z,78
2022-11-15T13:51:22.214Z,78
2022-11-15T13:52:28.365Z,78
2022-11-15T13:53:34.520Z,73
2022-11-15T13:54:40.842Z,78
2022-11-15T13:55:46.990Z,78
2022-11-15T13:56:53.115Z,78
2022-11-15T13:57:59.198Z,78
2022-11-15T13:59:05.252Z,73
2022-11-15T14:00:11.407Z,78
2022-11-15T14:01:17.562Z,73
2022-11-15T14:02:23.699Z,67
2022-11-15T14:03:29.854Z,61
2022-11-15T14:04:36.003Z,61
2022-11-15T14:05:41.170Z,61
2022-11-15T14:06:47.314Z,61
2022-11-15T14:07:53.463Z,56
2022-11-15T14:08:59.606Z,56
2022-11-15T14:10:05.807Z,56
2022-11-15T14:11:11.906Z,56
2022-11-15T14:12:18.054Z,56
2022-11-15T14:13:24.214Z,56
2022-11-15T14:14:30.437Z,56
2022-11-15T14:15:36.540Z,56
2022-11-15T14:16:42.756Z,56
2022-11-15T14:17:48.851Z,56
2022-11-15T14:18:55.164Z,56
2022-11-15T14:20:00.191Z,50
2022-11-15T14:21:06.299Z,50
2022-11-15T14:22:12.458Z,50
2022-11-15T14:23:18.622Z,45
2022-11-15T14:24:24.893Z,45
2022-11-15T14:25:30.920Z,45
2022-11-15T14:26:37.087Z,45
2022-11-15T14:27:43.252Z,45
2022-11-15T14:28:49.400Z,45
2022-11-15T14:29:55.575Z,39
2022-11-15T14:31:01.720Z,39
2022-11-15T14:32:07.935Z,39
2022-11-15T14:33:14.046Z,39
2022-11-15T14:34:19.220Z,39
2022-11-15T14:35:25.372Z,39
2022-11-15T14:36:31.543Z,39
2022-11-15T14:37:37.711Z,39
2022-11-15T14:38:43.875Z,33
2022-11-15T14:39:50.027Z,33
2022-11-15T14:40:56.195Z,33
2022-11-15T14:42:02.365Z,33
2022-11-15T14:43:08.528Z,33
2022-11-15T14:44:14.697Z,33
2022-11-15T14:45:20.880Z,33
2022-11-15T14:46:27.049Z,28
2022-11-15T14:47:33.208Z,28
2022-11-15T14:48:38.389Z,28
2022-11-15T14:49:44.702Z,28
2022-11-15T14:50:50.956Z,28
2022-11-15T14:51:57.151Z,28
2022-11-15T14:53:03.092Z,22
2022-11-15T14:54:09.270Z,22
2022-11-15T14:55:15.446Z,22
2022-11-15T14:56:21.629Z,22
2022-11-15T14:57:27.794Z,22
2022-11-15T14:58:33.984Z,16
2022-11-15T14:59:40.172Z,16
2022-11-15T15:00:46.346Z,16
2022-11-15T15:01:52.530Z,16
2022-11-15T15:02:57.743Z,16
2022-11-15T15:04:03.900Z,16
2022-11-15T15:05:10.106Z,11
2022-11-15T15:06:16.264Z,11
2022-11-15T15:07:22.442Z,11
2022-11-15T15:08:28.630Z,11
2022-11-15T15:09:34.813Z,11
2022-11-15T15:10:41.001Z,11
2022-11-15T15:11:47.184Z,11
2022-11-15T15:12:53.385Z,5
2022-11-15T15:13:59.566Z,5
2022-11-15T15:15:05.736Z,5
2022-11-15T15:16:11.938Z,5
2022-11-15T15:17:18.133Z,5
2022-11-15T15:18:23.318Z,5
2022-11-15T15:19:29.552Z,5
2022-11-15T15:20:35.707Z,5
2022-11-15T15:21:41.907Z,5
2022-11-15T15:22:48.111Z,0
2022-11-15T15:23:54.377Z,0
2022-11-15T15:25:00.633Z,0
2022-11-15T15:26:06.797Z,0
2022-11-15T15:27:13.040Z,0
2022-11-15T15:28:19.091Z,0
2022-11-15T15:29:25.292Z,0
2022-11-15T15:30:31.486Z,0
2022-11-15T15:31:37.685Z,0
2022-11-15T15:32:43.882Z,0
2022-11-15T15:33:50.086Z,0
2022-11-15T15:34:56.313Z,0
2022-11-15T15:36:02.479Z,0
2022-11-15T15:37:08.686Z,0
2022-11-15T15:38:14.889Z,0
2022-11-15T15:39:21.113Z,0
2022-11-15T15:40:27.303Z,0
2022-11-15T15:41:33.512Z,0
2022-11-15T15:42:39.868Z,0
2022-11-15T15:43:45.922Z,0
2022-11-15T15:44:52.352Z,0